sensor_id;sensor_type;location;lat;lon;timestamp;temperature;humidity
28835;DHT22;15969;51.536;11.884;2023-04-26T00:02:02;5.40;99.90
28835;DHT22;15969;51.536;11.884;2023-04-26T00:04:29;5.40;99.90
28835;DHT22;15969;51.536;11.884;2023-04-26T00:06:56;5.40;99.90
28835;DHT22;15969;51.536;11.884;2023-04-26T00:09:21;5.40;99.90
28835;DHT22;15969;51.536;11.884;2023-04-26T00:11:47;5.30;99.90
28835;DHT22;15969;51.536;11.884;2023-04-26T00:14:14;5.10;99.90
28835;DHT22;15969;51.536;11.884;2023-04-26T00:16:40;4.90;99.90
28835;DHT22;15969;51.536;11.884;2023-04-26T00:19:05;4.80;99.90
28835;DHT22;15969;51.536;11.884;2023-04-26T00:21:31;4.80;99.90
28835;DHT22;15969;51.536;11.884;2023-04-26T00:23:57;4.80;99.90
28835;DHT22;15969;51.536;11.884;2023-04-26T00:26:22;4.80;99.90
28835;DHT22;15969;51.536;11.884;2023-04-26T00:28:48;4.80;99.90
28835;DHT22;15969;51.536;11.884;2023-04-26T00:31:16;4.80;99.90
28835;DHT22;15969;51.536;11.884;2023-04-26T00:33:42;4.70;99.90
28835;DHT22;15969;51.536;11.884;2023-04-26T00:36:08;4.70;99.90
28835;DHT22;15969;51.536;11.884;2023-04-26T00:38:35;4.50;99.90
28835;DHT22;15969;51.536;11.884;2023-04-26T00:41:01;4.50;99.90
28835;DHT22;15969;51.536;11.884;2023-04-26T00:43:26;4.50;99.90
28835;DHT22;15969;51.536;11.884;2023-04-26T00:45:52;4.50;99.90
28835;DHT22;15969;51.536;11.884;2023-04-26T00:48:19;4.50;99.90
28835;DHT22;15969;51.536;11.884;2023-04-26T00:50:45;4.50;99.90
28835;DHT22;15969;51.536;11.884;2023-04-26T00:53:13;4.50;99.90
28835;DHT22;15969;51.536;11.884;2023-04-26T00:55:40;4.50;99.90
28835;DHT22;15969;51.536;11.884;2023-04-26T00:58:06;4.50;99.90
28835;DHT22;15969;51.536;11.884;2023-04-26T01:00:32;4.50;99.90
28835;DHT22;15969;51.536;11.884;2023-04-26T01:02:58;4.50;99.90
28835;DHT22;15969;51.536;11.884;2023-04-26T01:05:23;4.40;99.90
28835;DHT22;15969;51.536;11.884;2023-04-26T01:07:49;4.30;99.90
28835;DHT22;15969;51.536;11.884;2023-04-26T01:10:16;4.20;99.90
28835;DHT22;15969;51.536;11.884;2023-04-26T01:12:42;4.10;99.90
28835;DHT22;15969;51.536;11.884;2023-04-26T01:15:09;4.10;99.90
28835;DHT22;15969;51.536;11.884;2023-04-26T01:17:35;3.90;99.90
28835;DHT22;15969;51.536;11.884;2023-04-26T01:20:03;3.80;99.90
28835;DHT22;15969;51.536;11.884;2023-04-26T01:22:33;3.90;99.90
28835;DHT22;15969;51.536;11.884;2023-04-26T01:25:00;3.90;99.90
28835;DHT22;15969;51.536;11.884;2023-04-26T01:27:28;3.80;99.90
28835;DHT22;15969;51.536;11.884;2023-04-26T01:29:54;3.70;99.90
28835;DHT22;15969;51.536;11.884;2023-04-26T01:32:20;3.80;99.90
28835;DHT22;15969;51.536;11.884;2023-04-26T01:34:45;3.70;99.90
28835;DHT22;15969;51.536;11.884;2023-04-26T01:37:11;3.70;99.90
28835;DHT22;15969;51.536;11.884;2023-04-26T01:39:37;3.70;99.90
28835;DHT22;15969;51.536;11.884;2023-04-26T01:42:03;3.60;99.90
28835;DHT22;15969;51.536;11.884;2023-04-26T01:44:29;3.70;99.90
28835;DHT22;15969;51.536;11.884;2023-04-26T01:46:55;3.70;99.90
28835;DHT22;15969;51.536;11.884;2023-04-26T01:49:21;3.80;99.90
28835;DHT22;15969;51.536;11.884;2023-04-26T01:51:46;3.80;99.90
28835;DHT22;15969;51.536;11.884;2023-04-26T01:54:12;3.80;99.90
28835;DHT22;15969;51.536;11.884;2023-04-26T01:56:38;3.70;99.90
28835;DHT22;15969;51.536;11.884;2023-04-26T01:59:03;3.50;99.90
28835;DHT22;15969;51.536;11.884;2023-04-26T02:01:29;3.40;99.90
28835;DHT22;15969;51.536;11.884;2023-04-26T02:03:55;3.30;99.90
28835;DHT22;15969;51.536;11.884;2023-04-26T02:06:21;3.30;99.90
28835;DHT22;15969;51.536;11.884;2023-04-26T02:08:46;3.20;99.90
28835;DHT22;15969;51.536;11.884;2023-04-26T02:11:13;3.10;99.90
28835;DHT22;15969;51.536;11.884;2023-04-26T02:13:39;3.10;99.90
28835;DHT22;15969;51.536;11.884;2023-04-26T02:16:05;3.20;99.90
28835;DHT22;15969;51.536;11.884;2023-04-26T02:18:31;3.20;99.90
28835;DHT22;15969;51.536;11.884;2023-04-26T02:20:57;3.20;99.90
28835;DHT22;15969;51.536;11.884;2023-04-26T02:23:23;3.20;99.90
28835;DHT22;15969;51.536;11.884;2023-04-26T02:25:49;3.10;99.90
28835;DHT22;15969;51.536;11.884;2023-04-26T02:28:15;3.20;99.90
28835;DHT22;15969;51.536;11.884;2023-04-26T02:30:41;3.10;99.90
28835;DHT22;15969;51.536;11.884;2023-04-26T02:33:07;3.10;99.90
28835;DHT22;15969;51.536;11.884;2023-04-26T02:35:34;3.10;99.90
28835;DHT22;15969;51.536;11.884;2023-04-26T02:38:00;3.00;99.90
28835;DHT22;15969;51.536;11.884;2023-04-26T02:40:26;2.90;99.90
28835;DHT22;15969;51.536;11.884;2023-04-26T02:42:51;3.00;99.90
28835;DHT22;15969;51.536;11.884;2023-04-26T02:45:17;3.00;99.90
28835;DHT22;15969;51.536;11.884;2023-04-26T02:47:43;3.00;99.90
28835;DHT22;15969;51.536;11.884;2023-04-26T02:50:09;3.00;99.90
28835;DHT22;15969;51.536;11.884;2023-04-26T02:52:35;3.10;99.90
28835;DHT22;15969;51.536;11.884;2023-04-26T02:55:02;3.10;99.90
28835;DHT22;15969;51.536;11.884;2023-04-26T02:57:29;3.10;99.90
28835;DHT22;15969;51.536;11.884;2023-04-26T02:59:55;3.10;99.90
28835;DHT22;15969;51.536;11.884;2023-04-26T03:02:21;3.10;99.90
28835;DHT22;15969;51.536;11.884;2023-04-26T03:04:47;3.00;99.90
28835;DHT22;15969;51.536;11.884;2023-04-26T03:07:13;3.00;99.90
28835;DHT22;15969;51.536;11.884;2023-04-26T03:09:39;2.80;99.90
28835;DHT22;15969;51.536;11.884;2023-04-26T03:12:05;2.70;99.90
28835;DHT22;15969;51.536;11.884;2023-04-26T03:14:32;2.70;99.90
28835;DHT22;15969;51.536;11.884;2023-04-26T03:16:58;2.80;99.90
28835;DHT22;15969;51.536;11.884;2023-04-26T03:19:24;2.80;99.90
28835;DHT22;15969;51.536;11.884;2023-04-26T03:21:51;2.80;99.90
28835;DHT22;15969;51.536;11.884;2023-04-26T03:24:16;2.70;99.90
28835;DHT22;15969;51.536;11.884;2023-04-26T03:26:42;2.70;99.90
28835;DHT22;15969;51.536;11.884;2023-04-26T03:29:08;2.50;99.90
28835;DHT22;15969;51.536;11.884;2023-04-26T03:31:33;2.50;99.90
28835;DHT22;15969;51.536;11.884;2023-04-26T03:33:59;2.50;99.90
28835;DHT22;15969;51.536;11.884;2023-04-26T03:36:25;2.40;99.90
28835;DHT22;15969;51.536;11.884;2023-04-26T03:38:53;2.40;99.90
28835;DHT22;15969;51.536;11.884;2023-04-26T03:41:19;2.30;99.90
28835;DHT22;15969;51.536;11.884;2023-04-26T03:43:45;2.30;99.90
28835;DHT22;15969;51.536;11.884;2023-04-26T03:46:11;2.30;99.90
28835;DHT22;15969;51.536;11.884;2023-04-26T03:48:36;2.30;99.90
28835;DHT22;15969;51.536;11.884;2023-04-26T03:51:02;2.20;99.90
28835;DHT22;15969;51.536;11.884;2023-04-26T03:53:28;2.10;99.90
28835;DHT22;15969;51.536;11.884;2023-04-26T03:55:54;2.10;99.90
28835;DHT22;15969;51.536;11.884;2023-04-26T03:58:20;2.10;99.90
28835;DHT22;15969;51.536;11.884;2023-04-26T04:00:46;2.10;99.90
28835;DHT22;15969;51.536;11.884;2023-04-26T04:03:11;2.20;99.90
28835;DHT22;15969;51.536;11.884;2023-04-26T04:05:37;2.20;99.90
28835;DHT22;15969;51.536;11.884;2023-04-26T04:08:03;2.20;99.90
28835;DHT22;15969;51.536;11.884;2023-04-26T04:10:29;2.20;99.90
28835;DHT22;15969;51.536;11.884;2023-04-26T04:12:54;2.10;99.90
28835;DHT22;15969;51.536;11.884;2023-04-26T04:15:20;2.20;99.90
28835;DHT22;15969;51.536;11.884;2023-04-26T04:17:46;2.20;99.90
28835;DHT22;15969;51.536;11.884;2023-04-26T04:20:12;2.10;99.90
28835;DHT22;15969;51.536;11.884;2023-04-26T04:22:38;2.10;99.90
28835;DHT22;15969;51.536;11.884;2023-04-26T04:25:07;2.00;99.90
28835;DHT22;15969;51.536;11.884;2023-04-26T04:27:38;1.90;99.90
28835;DHT22;15969;51.536;11.884;2023-04-26T04:30:07;1.90;99.90
28835;DHT22;15969;51.536;11.884;2023-04-26T04:32:34;2.00;99.90
28835;DHT22;15969;51.536;11.884;2023-04-26T04:35:01;2.10;99.90
28835;DHT22;15969;51.536;11.884;2023-04-26T04:37:26;2.10;99.90
28835;DHT22;15969;51.536;11.884;2023-04-26T04:39:53;2.20;99.90
28835;DHT22;15969;51.536;11.884;2023-04-26T04:42:20;2.30;99.90
28835;DHT22;15969;51.536;11.884;2023-04-26T04:44:46;2.40;99.90
28835;DHT22;15969;51.536;11.884;2023-04-26T04:47:12;2.50;99.90
28835;DHT22;15969;51.536;11.884;2023-04-26T04:49:37;2.50;99.90
28835;DHT22;15969;51.536;11.884;2023-04-26T04:52:04;2.60;99.90
28835;DHT22;15969;51.536;11.884;2023-04-26T04:54:30;2.60;99.90
28835;DHT22;15969;51.536;11.884;2023-04-26T04:56:56;2.70;99.90
28835;DHT22;15969;51.536;11.884;2023-04-26T04:59:22;2.80;99.90
28835;DHT22;15969;51.536;11.884;2023-04-26T05:01:48;2.80;99.90
28835;DHT22;15969;51.536;11.884;2023-04-26T05:04:14;2.90;99.90
28835;DHT22;15969;51.536;11.884;2023-04-26T05:06:40;3.00;99.90
28835;DHT22;15969;51.536;11.884;2023-04-26T05:09:07;3.20;99.90
28835;DHT22;15969;51.536;11.884;2023-04-26T05:11:33;3.30;99.90
28835;DHT22;15969;51.536;11.884;2023-04-26T05:13:59;3.30;99.90
28835;DHT22;15969;51.536;11.884;2023-04-26T05:16:25;3.40;99.90
28835;DHT22;15969;51.536;11.884;2023-04-26T05:18:51;3.50;99.90
28835;DHT22;15969;51.536;11.884;2023-04-26T05:21:16;3.50;99.90
28835;DHT22;15969;51.536;11.884;2023-04-26T05:23:42;3.60;99.90
28835;DHT22;15969;51.536;11.884;2023-04-26T05:26:11;3.70;99.90
28835;DHT22;15969;51.536;11.884;2023-04-26T05:28:38;3.80;99.90
28835;DHT22;15969;51.536;11.884;2023-04-26T05:31:04;3.90;99.90
28835;DHT22;15969;51.536;11.884;2023-04-26T05:33:29;4.00;99.90
28835;DHT22;15969;51.536;11.884;2023-04-26T05:35:55;4.00;99.90
28835;DHT22;15969;51.536;11.884;2023-04-26T05:38:22;4.00;99.90
28835;DHT22;15969;51.536;11.884;2023-04-26T05:40:48;4.10;99.90
28835;DHT22;15969;51.536;11.884;2023-04-26T05:43:14;4.20;99.90
28835;DHT22;15969;51.536;11.884;2023-04-26T05:45:39;4.30;99.90
28835;DHT22;15969;51.536;11.884;2023-04-26T05:48:05;4.40;99.90
28835;DHT22;15969;51.536;11.884;2023-04-26T05:50:31;4.50;99.90
28835;DHT22;15969;51.536;11.884;2023-04-26T05:52:57;4.60;99.90
28835;DHT22;15969;51.536;11.884;2023-04-26T05:55:22;4.80;99.90
28835;DHT22;15969;51.536;11.884;2023-04-26T05:57:48;4.90;99.90
28835;DHT22;15969;51.536;11.884;2023-04-26T06:00:14;5.00;99.90
28835;DHT22;15969;51.536;11.884;2023-04-26T06:02:41;5.10;99.90
28835;DHT22;15969;51.536;11.884;2023-04-26T06:05:06;5.20;99.90
28835;DHT22;15969;51.536;11.884;2023-04-26T06:07:33;5.40;99.90
28835;DHT22;15969;51.536;11.884;2023-04-26T06:10:00;5.50;99.90
28835;DHT22;15969;51.536;11.884;2023-04-26T06:12:26;5.50;99.90
28835;DHT22;15969;51.536;11.884;2023-04-26T06:14:52;5.60;99.90
28835;DHT22;15969;51.536;11.884;2023-04-26T06:17:18;5.70;99.90
28835;DHT22;15969;51.536;11.884;2023-04-26T06:19:43;5.80;99.90
28835;DHT22;15969;51.536;11.884;2023-04-26T06:22:09;6.00;99.90
28835;DHT22;15969;51.536;11.884;2023-04-26T06:24:35;6.00;99.90
28835;DHT22;15969;51.536;11.884;2023-04-26T06:27:01;6.20;99.90
28835;DHT22;15969;51.536;11.884;2023-04-26T06:29:29;6.30;99.90
28835;DHT22;15969;51.536;11.884;2023-04-26T06:31:56;6.40;99.90
28835;DHT22;15969;51.536;11.884;2023-04-26T06:34:22;6.50;99.90
28835;DHT22;15969;51.536;11.884;2023-04-26T06:36:48;6.50;99.90
28835;DHT22;15969;51.536;11.884;2023-04-26T06:39:13;6.60;99.90
28835;DHT22;15969;51.536;11.884;2023-04-26T06:41:39;6.70;99.90
28835;DHT22;15969;51.536;11.884;2023-04-26T06:44:05;6.70;99.90
28835;DHT22;15969;51.536;11.884;2023-04-26T06:46:31;6.70;99.90
28835;DHT22;15969;51.536;11.884;2023-04-26T06:48:57;6.80;99.90
28835;DHT22;15969;51.536;11.884;2023-04-26T06:51:22;6.90;99.90
28835;DHT22;15969;51.536;11.884;2023-04-26T06:53:48;7.00;99.90
28835;DHT22;15969;51.536;11.884;2023-04-26T06:56:14;7.00;99.90
28835;DHT22;15969;51.536;11.884;2023-04-26T06:58:44;7.10;99.90
28835;DHT22;15969;51.536;11.884;2023-04-26T07:01:22;7.30;99.90
28835;DHT22;15969;51.536;11.884;2023-04-26T07:03:48;7.40;99.90
28835;DHT22;15969;51.536;11.884;2023-04-26T07:06:14;7.50;99.90
28835;DHT22;15969;51.536;11.884;2023-04-26T07:08:39;7.60;99.90
28835;DHT22;15969;51.536;11.884;2023-04-26T07:11:09;7.60;99.90
28835;DHT22;15969;51.536;11.884;2023-04-26T07:13:35;7.70;99.90
28835;DHT22;15969;51.536;11.884;2023-04-26T07:16:01;7.90;99.90
28835;DHT22;15969;51.536;11.884;2023-04-26T07:18:26;7.80;99.90
28835;DHT22;15969;51.536;11.884;2023-04-26T07:20:52;8.00;99.90
28835;DHT22;15969;51.536;11.884;2023-04-26T07:23:18;8.20;99.90
28835;DHT22;15969;51.536;11.884;2023-04-26T07:25:44;8.40;99.90
28835;DHT22;15969;51.536;11.884;2023-04-26T07:28:09;8.50;99.90
28835;DHT22;15969;51.536;11.884;2023-04-26T07:30:35;8.60;99.90
28835;DHT22;15969;51.536;11.884;2023-04-26T07:33:01;8.80;99.90
28835;DHT22;15969;51.536;11.884;2023-04-26T07:35:27;9.10;99.90
28835;DHT22;15969;51.536;11.884;2023-04-26T07:37:52;9.20;99.90
28835;DHT22;15969;51.536;11.884;2023-04-26T07:40:18;9.00;99.40
28835;DHT22;15969;51.536;11.884;2023-04-26T07:42:46;8.90;99.70
28835;DHT22;15969;51.536;11.884;2023-04-26T07:45:12;8.90;99.50
28835;DHT22;15969;51.536;11.884;2023-04-26T07:47:38;8.90;99.70
28835;DHT22;15969;51.536;11.884;2023-04-26T07:50:04;8.80;99.10
28835;DHT22;15969;51.536;11.884;2023-04-26T07:52:30;8.90;99.50
28835;DHT22;15969;51.536;11.884;2023-04-26T07:54:56;8.90;99.40
28835;DHT22;15969;51.536;11.884;2023-04-26T07:57:21;8.90;99.60
28835;DHT22;15969;51.536;11.884;2023-04-26T07:59:47;8.90;99.90
28835;DHT22;15969;51.536;11.884;2023-04-26T08:02:13;8.90;99.40
28835;DHT22;15969;51.536;11.884;2023-04-26T08:04:48;9.00;99.50
28835;DHT22;15969;51.536;11.884;2023-04-26T08:07:15;9.00;99.10
28835;DHT22;15969;51.536;11.884;2023-04-26T08:09:41;9.00;99.10
28835;DHT22;15969;51.536;11.884;2023-04-26T08:12:07;9.00;99.10
28835;DHT22;15969;51.536;11.884;2023-04-26T08:14:36;9.10;98.90
28835;DHT22;15969;51.536;11.884;2023-04-26T08:17:02;9.10;99.10
28835;DHT22;15969;51.536;11.884;2023-04-26T08:19:28;9.20;99.10
28835;DHT22;15969;51.536;11.884;2023-04-26T08:21:55;9.20;99.70
28835;DHT22;15969;51.536;11.884;2023-04-26T08:24:21;9.20;99.40
28835;DHT22;15969;51.536;11.884;2023-04-26T08:26:47;9.20;97.90
28835;DHT22;15969;51.536;11.884;2023-04-26T08:29:13;9.20;97.80
28835;DHT22;15969;51.536;11.884;2023-04-26T08:31:39;9.10;97.70
28835;DHT22;15969;51.536;11.884;2023-04-26T08:34:06;9.20;97.90
28835;DHT22;15969;51.536;11.884;2023-04-26T08:36:36;9.10;97.90
28835;DHT22;15969;51.536;11.884;2023-04-26T08:39:02;9.20;97.90
28835;DHT22;15969;51.536;11.884;2023-04-26T08:41:29;9.20;97.20
28835;DHT22;15969;51.536;11.884;2023-04-26T08:44:02;9.40;97.60
28835;DHT22;15969;51.536;11.884;2023-04-26T08:46:35;9.60;97.80
28835;DHT22;15969;51.536;11.884;2023-04-26T08:51:50;9.80;96.90
28835;DHT22;15969;51.536;11.884;2023-04-26T08:54:18;9.70;96.20
28835;DHT22;15969;51.536;11.884;2023-04-26T08:56:45;9.70;96.10
28835;DHT22;15969;51.536;11.884;2023-04-26T08:59:12;9.60;95.60
28835;DHT22;15969;51.536;11.884;2023-04-26T09:01:42;9.50;95.20
28835;DHT22;15969;51.536;11.884;2023-04-26T09:04:08;9.40;95.60
28835;DHT22;15969;51.536;11.884;2023-04-26T09:06:34;9.40;95.60
28835;DHT22;15969;51.536;11.884;2023-04-26T09:09:02;9.50;95.30
28835;DHT22;15969;51.536;11.884;2023-04-26T09:11:29;9.60;95.10
28835;DHT22;15969;51.536;11.884;2023-04-26T09:13:55;9.90;94.90
28835;DHT22;15969;51.536;11.884;2023-04-26T09:16:34;10.10;93.60
28835;DHT22;15969;51.536;11.884;2023-04-26T09:19:01;10.20;93.70
28835;DHT22;15969;51.536;11.884;2023-04-26T09:21:26;10.10;90.50
28835;DHT22;15969;51.536;11.884;2023-04-26T09:23:57;10.20;90.20
28835;DHT22;15969;51.536;11.884;2023-04-26T09:26:24;10.20;89.70
28835;DHT22;15969;51.536;11.884;2023-04-26T09:29:13;10.20;87.90
28835;DHT22;15969;51.536;11.884;2023-04-26T09:31:42;10.10;89.10
28835;DHT22;15969;51.536;11.884;2023-04-26T09:34:12;10.10;89.80
28835;DHT22;15969;51.536;11.884;2023-04-26T09:36:49;10.10;88.30
28835;DHT22;15969;51.536;11.884;2023-04-26T09:39:33;10.10;88.80
28835;DHT22;15969;51.536;11.884;2023-04-26T09:42:04;9.90;88.10
28835;DHT22;15969;51.536;11.884;2023-04-26T09:44:34;9.90;89.50
28835;DHT22;15969;51.536;11.884;2023-04-26T09:47:08;9.80;90.70
28835;DHT22;15969;51.536;11.884;2023-04-26T09:49:45;9.80;90.90
28835;DHT22;15969;51.536;11.884;2023-04-26T09:52:13;9.80;91.20
28835;DHT22;15969;51.536;11.884;2023-04-26T09:54:42;9.90;90.90
28835;DHT22;15969;51.536;11.884;2023-04-26T09:57:17;10.00;90.10
28835;DHT22;15969;51.536;11.884;2023-04-26T09:59:49;10.20;90.40
28835;DHT22;15969;51.536;11.884;2023-04-26T10:02:27;10.30;86.60
28835;DHT22;15969;51.536;11.884;2023-04-26T10:04:55;10.50;86.40
28835;DHT22;15969;51.536;11.884;2023-04-26T10:07:23;10.60;85.60
28835;DHT22;15969;51.536;11.884;2023-04-26T10:09:49;10.70;86.50
28835;DHT22;15969;51.536;11.884;2023-04-26T10:12:18;10.90;83.30
28835;DHT22;15969;51.536;11.884;2023-04-26T10:14:45;11.10;81.80
28835;DHT22;15969;51.536;11.884;2023-04-26T10:17:11;11.30;80.70
28835;DHT22;15969;51.536;11.884;2023-04-26T10:19:40;11.40;78.90
28835;DHT22;15969;51.536;11.884;2023-04-26T10:22:22;11.40;77.60
28835;DHT22;15969;51.536;11.884;2023-04-26T10:24:50;11.30;77.40
28835;DHT22;15969;51.536;11.884;2023-04-26T10:30:13;11.00;81.10
28835;DHT22;15969;51.536;11.884;2023-04-26T10:35:17;10.80;80.90
28835;DHT22;15969;51.536;11.884;2023-04-26T10:45:40;10.50;81.80
28835;DHT22;15969;51.536;11.884;2023-04-26T10:48:14;10.40;83.20
28835;DHT22;15969;51.536;11.884;2023-04-26T10:53:24;10.60;82.40
28835;DHT22;15969;51.536;11.884;2023-04-26T10:55:50;10.70;81.50
28835;DHT22;15969;51.536;11.884;2023-04-26T10:58:30;10.80;81.90
28835;DHT22;15969;51.536;11.884;2023-04-26T11:01:06;11.00;81.20
28835;DHT22;15969;51.536;11.884;2023-04-26T11:03:33;11.20;81.80
28835;DHT22;15969;51.536;11.884;2023-04-26T11:05:59;11.40;80.10
28835;DHT22;15969;51.536;11.884;2023-04-26T11:08:29;11.70;78.80
28835;DHT22;15969;51.536;11.884;2023-04-26T11:13:39;11.90;73.10
28835;DHT22;15969;51.536;11.884;2023-04-26T11:16:07;11.90;72.90
28835;DHT22;15969;51.536;11.884;2023-04-26T11:18:34;11.80;73.70
28835;DHT22;15969;51.536;11.884;2023-04-26T11:21:02;11.60;74.80
28835;DHT22;15969;51.536;11.884;2023-04-26T11:23:29;11.60;76.60
28835;DHT22;15969;51.536;11.884;2023-04-26T11:25:59;11.60;76.10
28835;DHT22;15969;51.536;11.884;2023-04-26T11:28:36;11.70;74.30
28835;DHT22;15969;51.536;11.884;2023-04-26T11:31:03;11.80;74.10
28835;DHT22;15969;51.536;11.884;2023-04-26T11:33:30;11.80;73.40
28835;DHT22;15969;51.536;11.884;2023-04-26T11:35:58;11.90;73.70
28835;DHT22;15969;51.536;11.884;2023-04-26T11:38:25;12.00;73.90
28835;DHT22;15969;51.536;11.884;2023-04-26T11:40:55;11.90;72.40
28835;DHT22;15969;51.536;11.884;2023-04-26T11:43:38;11.90;73.80
28835;DHT22;15969;51.536;11.884;2023-04-26T11:46:05;11.90;73.50
28835;DHT22;15969;51.536;11.884;2023-04-26T11:48:33;12.00;73.80
28835;DHT22;15969;51.536;11.884;2023-04-26T11:51:02;12.00;72.30
28835;DHT22;15969;51.536;11.884;2023-04-26T11:53:50;12.00;71.70
28835;DHT22;15969;51.536;11.884;2023-04-26T11:56:19;12.00;72.80
28835;DHT22;15969;51.536;11.884;2023-04-26T11:58:48;12.00;71.80
28835;DHT22;15969;51.536;11.884;2023-04-26T12:01:22;12.10;76.10
28835;DHT22;15969;51.536;11.884;2023-04-26T12:03:56;12.20;75.00
28835;DHT22;15969;51.536;11.884;2023-04-26T12:06:42;12.30;73.10
28835;DHT22;15969;51.536;11.884;2023-04-26T12:09:09;12.40;74.10
28835;DHT22;15969;51.536;11.884;2023-04-26T12:11:38;12.40;75.90
28835;DHT22;15969;51.536;11.884;2023-04-26T12:14:04;12.40;72.70
28835;DHT22;15969;51.536;11.884;2023-04-26T12:16:35;12.30;75.20
28835;DHT22;15969;51.536;11.884;2023-04-26T12:19:04;12.20;77.30
28835;DHT22;15969;51.536;11.884;2023-04-26T12:21:42;12.10;76.70
28835;DHT22;15969;51.536;11.884;2023-04-26T12:24:21;12.10;77.80
28835;DHT22;15969;51.536;11.884;2023-04-26T12:26:50;12.10;78.90
28835;DHT22;15969;51.536;11.884;2023-04-26T12:29:16;12.10;78.80
28835;DHT22;15969;51.536;11.884;2023-04-26T12:31:42;12.10;73.40
28835;DHT22;15969;51.536;11.884;2023-04-26T12:34:08;12.20;76.30
28835;DHT22;15969;51.536;11.884;2023-04-26T12:36:33;12.30;77.30
28835;DHT22;15969;51.536;11.884;2023-04-26T12:38:59;12.40;77.80
28835;DHT22;15969;51.536;11.884;2023-04-26T12:41:27;12.40;76.50
28835;DHT22;15969;51.536;11.884;2023-04-26T12:43:53;12.50;78.10
28835;DHT22;15969;51.536;11.884;2023-04-26T12:46:19;12.50;77.70
28835;DHT22;15969;51.536;11.884;2023-04-26T12:48:45;12.40;74.40
28835;DHT22;15969;51.536;11.884;2023-04-26T12:51:11;12.40;71.80
28835;DHT22;15969;51.536;11.884;2023-04-26T12:53:36;12.50;73.70
28835;DHT22;15969;51.536;11.884;2023-04-26T12:56:02;12.50;70.80
28835;DHT22;15969;51.536;11.884;2023-04-26T12:58:28;12.40;72.50
28835;DHT22;15969;51.536;11.884;2023-04-26T13:00:54;12.30;71.40
28835;DHT22;15969;51.536;11.884;2023-04-26T13:03:20;12.30;71.00
28835;DHT22;15969;51.536;11.884;2023-04-26T13:05:46;12.40;72.60
28835;DHT22;15969;51.536;11.884;2023-04-26T13:08:11;12.40;71.40
28835;DHT22;15969;51.536;11.884;2023-04-26T13:10:37;12.50;73.10
28835;DHT22;15969;51.536;11.884;2023-04-26T13:13:03;12.60;70.60
28835;DHT22;15969;51.536;11.884;2023-04-26T13:15:28;12.60;70.10
28835;DHT22;15969;51.536;11.884;2023-04-26T13:17:54;12.50;70.10
28835;DHT22;15969;51.536;11.884;2023-04-26T13:20:20;12.40;72.80
28835;DHT22;15969;51.536;11.884;2023-04-26T13:22:46;12.30;71.00
28835;DHT22;15969;51.536;11.884;2023-04-26T13:25:11;12.20;73.40
28835;DHT22;15969;51.536;11.884;2023-04-26T13:27:39;12.10;74.40
28835;DHT22;15969;51.536;11.884;2023-04-26T13:30:06;11.90;74.20
28835;DHT22;15969;51.536;11.884;2023-04-26T13:32:32;11.90;75.10
28835;DHT22;15969;51.536;11.884;2023-04-26T13:34:58;11.90;74.80
28835;DHT22;15969;51.536;11.884;2023-04-26T13:37:24;11.90;73.30
28835;DHT22;15969;51.536;11.884;2023-04-26T13:39:51;12.00;73.80
28835;DHT22;15969;51.536;11.884;2023-04-26T13:42:16;12.00;70.90
28835;DHT22;15969;51.536;11.884;2023-04-26T13:44:42;12.10;70.20
28835;DHT22;15969;51.536;11.884;2023-04-26T13:47:08;12.10;69.50
28835;DHT22;15969;51.536;11.884;2023-04-26T13:49:34;12.10;71.40
28835;DHT22;15969;51.536;11.884;2023-04-26T13:51:59;12.20;72.10
28835;DHT22;15969;51.536;11.884;2023-04-26T13:54:25;12.30;71.70
28835;DHT22;15969;51.536;11.884;2023-04-26T13:56:51;12.30;72.80
28835;DHT22;15969;51.536;11.884;2023-04-26T13:59:18;12.40;71.10
28835;DHT22;15969;51.536;11.884;2023-04-26T14:01:44;12.40;71.50
28835;DHT22;15969;51.536;11.884;2023-04-26T14:04:10;12.50;71.10
28835;DHT22;15969;51.536;11.884;2023-04-26T14:06:36;12.50;70.40
28835;DHT22;15969;51.536;11.884;2023-04-26T14:09:02;12.60;70.80
28835;DHT22;15969;51.536;11.884;2023-04-26T14:11:30;12.60;69.40
28835;DHT22;15969;51.536;11.884;2023-04-26T14:13:56;12.60;70.30
28835;DHT22;15969;51.536;11.884;2023-04-26T14:16:22;12.50;71.10
28835;DHT22;15969;51.536;11.884;2023-04-26T14:18:49;12.40;71.00
28835;DHT22;15969;51.536;11.884;2023-04-26T14:21:14;12.20;70.20
28835;DHT22;15969;51.536;11.884;2023-04-26T14:23:40;12.10;73.10
28835;DHT22;15969;51.536;11.884;2023-04-26T14:26:06;12.00;72.40
28835;DHT22;15969;51.536;11.884;2023-04-26T14:28:32;12.00;70.70
28835;DHT22;15969;51.536;11.884;2023-04-26T14:30:58;11.80;73.10
28835;DHT22;15969;51.536;11.884;2023-04-26T14:33:25;11.80;73.30
28835;DHT22;15969;51.536;11.884;2023-04-26T14:35:50;11.80;73.60
28835;DHT22;15969;51.536;11.884;2023-04-26T14:38:17;11.80;73.10
28835;DHT22;15969;51.536;11.884;2023-04-26T14:40:42;11.80;72.30
28835;DHT22;15969;51.536;11.884;2023-04-26T14:43:09;11.70;73.30
28835;DHT22;15969;51.536;11.884;2023-04-26T14:45:35;11.70;72.60
28835;DHT22;15969;51.536;11.884;2023-04-26T14:48:01;11.70;75.50
28835;DHT22;15969;51.536;11.884;2023-04-26T14:50:27;11.60;75.60
28835;DHT22;15969;51.536;11.884;2023-04-26T14:52:54;11.60;76.60
28835;DHT22;15969;51.536;11.884;2023-04-26T14:55:20;11.60;75.00
28835;DHT22;15969;51.536;11.884;2023-04-26T14:57:48;11.50;75.10
28835;DHT22;15969;51.536;11.884;2023-04-26T15:00:15;11.40;76.40
28835;DHT22;15969;51.536;11.884;2023-04-26T15:02:44;11.50;75.50
28835;DHT22;15969;51.536;11.884;2023-04-26T15:05:10;11.40;76.40
28835;DHT22;15969;51.536;11.884;2023-04-26T15:07:38;11.50;76.20
28835;DHT22;15969;51.536;11.884;2023-04-26T15:10:05;11.50;75.50
28835;DHT22;15969;51.536;11.884;2023-04-26T15:12:32;11.50;75.80
28835;DHT22;15969;51.536;11.884;2023-04-26T15:14:58;11.40;75.10
28835;DHT22;15969;51.536;11.884;2023-04-26T15:17:24;11.40;75.00
28835;DHT22;15969;51.536;11.884;2023-04-26T15:19:49;11.40;75.50
28835;DHT22;15969;51.536;11.884;2023-04-26T15:22:15;11.50;76.80
28835;DHT22;15969;51.536;11.884;2023-04-26T15:24:41;11.50;76.00
28835;DHT22;15969;51.536;11.884;2023-04-26T15:27:06;11.60;76.80
28835;DHT22;15969;51.536;11.884;2023-04-26T15:29:33;11.60;75.20
28835;DHT22;15969;51.536;11.884;2023-04-26T15:31:59;11.70;75.70
28835;DHT22;15969;51.536;11.884;2023-04-26T15:34:25;11.70;75.80
28835;DHT22;15969;51.536;11.884;2023-04-26T15:36:52;11.70;73.50
28835;DHT22;15969;51.536;11.884;2023-04-26T15:39:19;11.60;74.80
28835;DHT22;15969;51.536;11.884;2023-04-26T15:41:44;11.60;74.90
28835;DHT22;15969;51.536;11.884;2023-04-26T15:44:10;11.60;75.70
28835;DHT22;15969;51.536;11.884;2023-04-26T15:46:36;11.60;74.30